Time;durP1;ratioP1;P1;durP2;ratioP2;P2;SDS_P1;SDS_P2;PMS_P1;PMS_P2;Temp;Humidity;BMP_temperature;BMP_pressure;BME280_temperature;BME280_humidity;BME280_pressure;Samples;Min_cycle;Max_cycle;Signal;HPM_P1;HPM_P2
2022/09/02 00:02:22;;;;;;;0.60;0.60;;;13.50;69.70;;;13.66;55.84;95279.47;5011833;28;20216;-80
2022/09/02 00:04:49;;;;;;;0.60;0.60;;;13.50;69.70;;;13.62;55.88;95276.44;4996447;28;20225;-78
2022/09/02 00:07:17;;;;;;;0.60;0.60;;;13.40;69.80;;;13.61;55.86;95274.84;4994758;28;20225;-78
2022/09/02 00:09:44;;;;;;;0.70;0.70;;;13.40;69.90;;;13.59;56.26;95282.13;4995635;28;20224;-78
2022/09/02 00:12:11;;;;;;;0.60;0.60;;;13.40;70.10;;;13.57;56.37;95270.97;5011506;28;20679;-78
2022/09/02 00:14:39;;;;;;;0.60;0.60;;;13.40;70.10;;;13.57;56.47;95273.59;4994586;28;20230;-77
2022/09/02 00:17:06;;;;;;;0.60;0.60;;;13.40;70.30;;;13.57;56.35;95269.16;5012470;28;20220;-78
2022/09/02 00:19:34;;;;;;;0.60;0.60;;;13.40;70.40;;;13.57;56.63;95271.78;5000712;28;20274;-78
2022/09/02 00:22:02;;;;;;;0.60;0.60;;;13.40;70.50;;;13.60;56.59;95268.72;5014905;28;20224;-78
2022/09/02 00:24:31;;;;;;;0.60;0.60;;;13.40;70.70;;;13.62;56.54;95260.63;5015701;28;20207;-78
2022/09/02 00:26:58;;;;;;;0.60;0.60;;;13.40;70.70;;;13.62;56.70;95252.72;4995078;28;20710;-78
2022/09/02 00:29:27;;;;;;;0.60;0.60;;;13.50;70.70;;;13.65;56.54;95254.16;5010274;28;20206;-78
2022/09/02 00:31:55;;;;;;;0.80;0.80;;;13.40;70.70;;;13.65;56.71;95265.50;5011302;28;20251;-78
2022/09/02 00:34:23;;;;;;;0.60;0.60;;;13.40;70.60;;;13.63;56.60;95267.50;4994652;28;20228;-78
2022/09/02 00:36:50;;;;;;;0.80;0.80;;;13.50;70.60;;;13.63;56.57;95264.09;4995147;28;20213;-78
2022/09/02 00:39:18;;;;;;;0.60;0.60;;;13.50;70.60;;;13.61;56.40;95264.28;5006224;28;20207;-78
2022/09/02 00:41:46;;;;;;;0.63;0.63;;;13.40;70.50;;;13.58;56.52;95260.22;5009817;28;20792;-78
2022/09/02 00:44:18;;;;;;;0.70;0.70;;;13.40;70.50;;;13.55;56.52;95263.25;5002539;28;20587;-78
2022/09/02 00:46:46;;;;;;;0.63;0.63;;;13.40;70.80;;;13.52;56.51;95249.69;5015951;28;20224;-78
2022/09/02 00:49:30;;;;;;;0.65;0.65;;;13.40;70.60;;;13.50;56.87;95252.53;5015369;28;20280;-78
2022/09/02 00:52:18;;;;;;;0.70;0.70;;;13.30;71.30;;;13.46;56.82;95253.91;5015211;28;20208;-78
2022/09/02 00:54:57;;;;;;;0.70;0.70;;;13.30;71.30;;;13.48;56.60;95253.75;4999274;28;20188;-78
2022/09/02 00:57:33;;;;;;;0.60;0.60;;;13.30;71.20;;;13.46;57.05;95253.91;5014548;28;20220;-78
2022/09/02 01:00:25;;;;;;;0.60;0.60;;;13.30;71.00;;;13.46;57.03;95243.38;4999024;28;20635;-78
2022/09/02 01:03:05;;;;;;;0.70;0.70;;;13.30;71.30;;;13.45;57.09;95249.66;5015084;28;20319;-78
2022/09/02 01:05:38;;;;;;;0.80;0.80;;;13.30;70.80;;;13.45;56.93;95252.28;5005149;28;20659;-78
2022/09/02 01:08:18;;;;;;;0.60;0.60;;;13.30;70.90;;;13.43;57.00;95247.22;5003946;28;20205;-78
2022/09/02 01:10:47;;;;;;;0.60;0.60;;;13.30;70.80;;;13.42;56.92;95247.44;5029599;28;20262;-78
2022/09/02 01:13:19;;;;;;;0.60;0.60;;;13.30;70.90;;;13.38;56.77;95247.03;5032098;28;20592;-78
2022/09/02 01:15:55;;;;;;;0.68;0.68;;;13.20;70.90;;;13.35;56.93;95244.75;5013458;28;20193;-78
2022/09/02 01:18:30;;;;;;;0.60;0.60;;;13.20;70.90;;;13.34;56.96;95240.53;5002934;28;20573;-78
2022/09/02 01:20:59;;;;;;;0.63;0.63;;;13.20;70.90;;;13.30;56.81;95249.81;5014441;28;20188;-78
2022/09/02 01:23:29;;;;;;;0.60;0.60;;;13.20;70.80;;;13.26;56.80;95244.13;4994606;28;20200;-79
2022/09/02 01:26:04;;;;;;;0.90;0.90;;;13.10;70.80;;;13.24;56.71;95245.34;5014469;28;20713;-79
2022/09/02 01:28:32;;;;;;;0.65;0.65;;;13.10;70.90;;;13.23;56.90;95249.00;5028163;28;20201;-79
2022/09/02 01:31:00;;;;;;;0.60;0.60;;;13.00;70.70;;;13.19;57.01;95243.31;4998003;28;20247;-78
2022/09/02 01:33:27;;;;;;;0.60;0.60;;;13.00;70.70;;;13.17;56.98;95249.78;4981577;28;20224;-78
2022/09/02 01:35:58;;;;;;;0.60;0.60;;;13.00;70.80;;;13.16;57.18;95248.16;5013647;28;20197;-78
2022/09/02 01:38:26;;;;;;;0.60;0.60;;;13.10;70.90;;;13.14;57.05;95240.47;5014943;28;20204;-78
2022/09/02 01:40:53;;;;;;;0.70;0.70;;;13.00;70.90;;;13.12;57.11;95253.84;5013762;28;20293;-78
2022/09/02 01:43:25;;;;;;;0.60;0.60;;;12.90;70.90;;;13.09;56.77;95243.69;5014467;28;20203;-78
2022/09/02 01:45:55;;;;;;;0.60;0.60;;;12.90;71.10;;;13.09;56.98;95248.16;4998154;28;20181;-78
2022/09/02 01:48:26;;;;;;;0.60;0.60;;;12.90;71.00;;;13.04;57.16;95242.69;5016750;28;20246;-78
2022/09/02 01:51:01;;;;;;;0.60;0.60;;;12.90;70.90;;;13.01;57.20;95240.44;5020187;28;20197;-78
2022/09/02 01:53:29;;;;;;;0.63;0.63;;;12.90;71.40;;;12.96;57.39;95244.50;5013526;28;20728;-78
2022/09/02 01:55:59;;;;;;;0.60;0.60;;;12.90;70.90;;;12.93;57.01;95239.59;4998204;28;20201;-78
2022/09/02 01:58:29;;;;;;;0.65;0.65;;;12.80;70.80;;;12.89;57.26;95243.66;5008101;28;20254;-78
2022/09/02 02:00:56;;;;;;;0.60;0.60;;;12.80;70.80;;;12.86;57.12;95244.03;5019121;28;20206;-78
2022/09/02 02:03:24;;;;;;;0.60;0.60;;;12.70;70.70;;;12.82;57.22;95241.00;5017206;28;20655;-78
2022/09/02 02:05:52;;;;;;;0.68;0.68;;;12.70;70.90;;;12.78;57.21;95237.13;5015438;28;20195;-78
2022/09/02 02:08:21;;;;;;;0.60;0.60;;;12.60;70.90;;;12.76;57.39;95231.25;5023825;28;20205;-78
2022/09/02 02:10:49;;;;;;;0.70;0.70;;;12.60;70.90;;;12.73;57.32;95236.09;5021920;28;20213;-78
2022/09/02 02:13:17;;;;;;;0.70;0.70;;;12.60;71.00;;;12.67;57.35;95229.81;4997630;28;20264;-78
2022/09/02 02:15:44;;;;;;;0.60;0.60;;;12.60;71.00;;;12.66;57.31;95228.19;5013440;28;20205;-78
2022/09/02 02:18:12;;;;;;;0.70;0.70;;;12.50;71.00;;;12.61;57.30;95225.34;4994679;28;20211;-78
2022/09/02 02:20:39;;;;;;;0.60;0.60;;;12.50;71.00;;;12.58;57.40;95221.25;5013675;28;20193;-78
2022/09/02 02:23:11;;;;;;;0.65;0.65;;;12.50;71.10;;;12.55;57.31;95226.94;4998117;28;20259;-77
2022/09/02 02:25:38;;;;;;;0.70;0.70;;;12.50;71.00;;;12.53;57.44;95222.88;5028664;28;20224;-78
2022/09/02 02:28:06;;;;;;;0.68;0.68;;;12.40;71.00;;;12.48;57.45;95226.09;4988581;28;20768;-78
2022/09/02 02:30:34;;;;;;;0.70;0.70;;;12.40;71.00;;;12.42;57.41;95211.09;5008805;28;20205;-78
2022/09/02 02:33:02;;;;;;;0.70;0.70;;;12.30;71.00;;;12.41;57.52;95218.16;5007124;28;20312;-78
2022/09/02 02:35:30;;;;;;;0.70;0.70;;;12.30;71.00;;;12.38;57.61;95215.94;4996404;28;20236;-78
2022/09/02 02:37:57;;;;;;;0.70;0.70;;;12.30;71.10;;;12.35;57.69;95218.13;4997165;28;20224;-78
2022/09/02 02:40:30;;;;;;;0.70;0.70;;;12.20;71.10;;;12.31;57.50;95222.97;5012978;28;20635;-78
2022/09/02 02:42:58;;;;;;;0.70;0.70;;;12.20;71.10;;;12.29;57.41;95225.81;5032338;28;20270;-78
2022/09/02 02:45:26;;;;;;;0.60;0.60;;;12.20;72.20;;;12.26;57.67;95220.13;5016072;28;20291;-78
2022/09/02 02:47:54;;;;;;;0.60;0.60;;;12.10;71.20;;;12.23;57.60;95218.69;5004358;28;20247;-78
2022/09/02 02:50:24;;;;;;;0.70;0.70;;;12.10;71.30;;;12.19;57.55;95214.00;5008447;28;20286;-78
2022/09/02 02:52:53;;;;;;;0.60;0.60;;;12.10;71.40;;;12.16;57.70;95215.22;4998531;28;20225;-78
2022/09/02 02:55:24;;;;;;;0.60;0.60;;;12.00;71.30;;;12.14;57.61;95218.00;4995439;28;20205;-78
2022/09/02 02:57:51;;;;;;;0.70;0.70;;;12.00;71.40;;;12.13;57.75;95210.34;5022745;28;20216;-78
2022/09/02 03:00:24;;;;;;;0.70;0.70;;;12.00;71.40;;;12.09;57.88;95209.09;5011364;28;20769;-78
2022/09/02 03:02:58;;;;;;;0.60;0.60;;;11.90;71.60;;;12.07;57.88;95211.94;5017751;28;20619;-78
2022/09/02 03:05:27;;;;;;;0.60;0.60;;;11.90;71.90;;;12.04;57.43;95206.25;5011801;28;20192;-78
2022/09/02 03:07:56;;;;;;;0.70;0.70;;;11.90;71.50;;;12.03;57.90;95207.25;5019130;28;20209;-78
2022/09/02 03:10:26;;;;;;;0.65;0.65;;;12.00;71.50;;;12.00;57.98;95201.38;5012530;28;20212;-78
2022/09/02 03:12:53;;;;;;;0.80;0.80;;;11.90;71.50;;;11.99;57.92;95201.56;4997123;28;20663;-78
2022/09/02 03:15:21;;;;;;;0.60;0.60;;;11.80;71.50;;;11.96;57.83;95212.41;4978820;28;20224;-78
2022/09/02 03:17:53;;;;;;;0.60;0.60;;;11.80;71.50;;;11.94;57.97;95217.88;4989174;28;20213;-78
2022/09/02 03:20:22;;;;;;;0.70;0.70;;;11.80;71.60;;;11.93;57.98;95215.44;4978638;28;20622;-78
2022/09/02 03:22:57;;;;;;;0.60;0.60;;;11.80;71.70;;;11.90;58.17;95221.06;5009267;28;20721;-78
2022/09/02 03:25:29;;;;;;;0.80;0.80;;;11.80;71.70;;;11.88;57.93;95216.03;4995537;28;20200;-78
2022/09/02 03:28:05;;;;;;;0.63;0.63;;;11.80;71.80;;;11.87;58.08;95216.22;4997803;28;20327;-78
2022/09/02 03:30:33;;;;;;;0.68;0.68;;;11.80;71.70;;;11.84;58.01;95214.78;5005730;28;20667;-78
2022/09/02 03:33:04;;;;;;;0.70;0.70;;;11.80;71.80;;;11.84;58.15;95220.84;5011497;28;20221;-78
2022/09/02 03:35:38;;;;;;;0.70;0.70;;;11.70;71.70;;;11.81;58.21;95218.59;4998469;28;20225;-78
2022/09/02 03:38:06;;;;;;;0.80;0.80;;;11.70;71.90;;;11.79;58.23;95212.75;5002005;28;20212;-78
2022/09/02 03:40:34;;;;;;;0.80;0.80;;;11.60;71.70;;;11.79;58.21;95212.75;5010766;28;20280;-78
2022/09/02 03:43:03;;;;;;;0.63;0.63;;;11.60;71.80;;;11.73;58.22;95205.63;5037021;28;20247;-78
2022/09/02 03:45:30;;;;;;;0.60;0.60;;;11.60;71.80;;;11.73;58.05;95207.41;5003926;28;20200;-78
2022/09/02 03:48:03;;;;;;;0.60;0.60;;;11.60;71.80;;;11.71;58.23;95206.81;5016604;28;20224;-78
2022/09/02 03:50:39;;;;;;;0.60;0.60;;;11.60;71.90;;;11.70;58.41;95206.00;5007268;28;20204;-78
2022/09/02 03:53:10;;;;;;;0.60;0.60;;;11.60;72.10;;;11.68;58.26;95210.63;5017349;28;20224;-78
2022/09/02 03:55:46;;;;;;;0.60;0.60;;;11.50;71.80;;;11.65;58.23;95205.75;5009256;28;20300;-78
2022/09/02 03:58:16;;;;;;;0.70;0.70;;;11.60;71.90;;;11.63;58.27;95210.38;5002772;28;20215;-78
2022/09/02 04:00:53;;;;;;;0.80;0.80;;;11.50;71.80;;;11.63;58.40;95210.38;4991727;28;20192;-79
2022/09/02 04:03:22;;;;;;;0.60;0.60;;;11.50;72.30;;;11.59;58.29;95206.53;5010577;28;20580;-78
2022/09/02 04:05:51;;;;;;;0.60;0.60;;;11.50;71.90;;;11.59;58.24;95215.22;5012008;28;20229;-78
2022/09/02 04:08:19;;;;;;;0.80;0.80;;;11.50;71.90;;;11.57;58.21;95211.16;4978212;28;20196;-78
2022/09/02 04:10:48;;;;;;;0.60;0.60;;;11.40;71.90;;;11.55;58.34;95219.22;5003429;28;20705;-78
2022/09/02 04:13:16;;;;;;;0.60;0.60;;;11.40;71.90;;;11.52;58.48;95215.16;4997266;28;20517;-78
2022/09/02 04:15:46;;;;;;;0.60;0.60;;;11.40;71.90;;;11.49;58.54;95209.47;4977438;28;20229;-79
2022/09/02 04:18:16;;;;;;;0.70;0.70;;;11.50;72.20;;;11.52;58.44;95216.97;4993760;28;20201;-79
2022/09/02 04:20:44;;;;;;;0.60;0.60;;;11.50;72.20;;;11.48;58.62;95213.09;5018912;28;20199;-78
2022/09/02 04:23:12;;;;;;;0.60;0.60;;;11.40;72.10;;;11.49;58.42;95220.00;5012755;28;20298;-78
2022/09/02 04:25:43;;;;;;;0.70;0.70;;;11.40;72.10;;;11.48;58.43;95215.72;5013392;28;20640;-80
2022/09/02 04:28:11;;;;;;;0.65;0.65;;;11.30;72.00;;;11.48;58.59;95213.09;5023017;28;20207;-78
2022/09/02 04:30:41;;;;;;;0.60;0.60;;;11.30;72.00;;;11.46;58.56;95212.47;5044779;28;20254;-79
2022/09/02 04:33:11;;;;;;;0.60;0.60;;;11.40;72.30;;;11.48;58.18;95207.84;5025295;28;20200;-78
2022/09/02 04:35:46;;;;;;;0.60;0.60;;;11.30;72.10;;;11.48;58.38;95207.84;5025196;28;20228;-79
2022/09/02 04:38:16;;;;;;;0.50;0.50;;;11.30;72.50;;;11.47;58.68;95207.03;5012305;28;20217;-78
2022/09/02 04:40:46;;;;;;;0.60;0.60;;;11.40;72.30;;;11.47;58.68;95214.91;4996659;28;20212;-79
2022/09/02 04:43:16;;;;;;;0.60;0.60;;;11.40;72.50;;;11.51;58.78;95213.53;4995903;28;20205;-79
2022/09/02 04:45:46;;;;;;;0.70;0.70;;;11.40;72.50;;;11.53;58.96;95216.78;4995248;28;20225;-79
2022/09/02 04:48:17;;;;;;;0.70;0.70;;;11.40;73.40;;;11.56;58.94;95218.22;4979339;28;20197;-78
2022/09/02 04:50:47;;;;;;;0.60;0.60;;;11.40;72.60;;;11.60;58.76;95208.16;4994950;28;20208;-79
2022/09/02 04:53:16;;;;;;;0.70;0.70;;;11.50;72.70;;;11.62;58.80;95209.59;5013764;28;20204;-79
2022/09/02 04:55:43;;;;;;;0.65;0.65;;;11.60;72.80;;;11.66;59.08;95204.75;5014694;28;20203;-79
2022/09/02 04:58:15;;;;;;;0.60;0.60;;;11.50;72.70;;;11.71;59.23;95212.88;5016104;28;20215;-79
2022/09/02 05:00:43;;;;;;;0.60;0.60;;;11.50;72.90;;;11.75;59.19;95205.41;4979919;28;20205;-78
2022/09/02 05:03:12;;;;;;;0.52;0.52;;;11.60;73.00;;;11.81;59.34;95210.72;4995082;28;20201;-78
2022/09/02 05:05:41;;;;;;;0.70;0.70;;;11.70;73.10;;;11.80;59.69;95198.59;5012996;28;20224;-78
2022/09/02 05:08:12;;;;;;;0.80;0.80;;;11.80;73.10;;;11.91;59.36;95202.47;4999101;28;20214;-79
2022/09/02 05:10:41;;;;;;;0.60;0.60;;;11.80;73.20;;;11.99;59.27;95197.09;5023379;28;20627;-79
2022/09/02 05:13:08;;;;;;;0.60;0.60;;;11.90;73.30;;;12.05;59.55;95195.53;5022617;28;20197;-79
2022/09/02 05:15:42;;;;;;;0.70;0.70;;;11.90;73.20;;;12.12;59.92;95191.13;5026570;28;20547;-79
2022/09/02 05:18:10;;;;;;;0.60;0.60;;;12.00;73.60;;;12.24;59.31;95193.19;5014819;28;20200;-79
2022/09/02 05:20:42;;;;;;;0.60;0.60;;;12.10;73.50;;;12.31;59.64;95192.22;4998636;28;20211;-79
2022/09/02 05:23:12;;;;;;;0.60;0.60;;;12.10;73.40;;;12.39;59.32;95198.31;4996041;28;20757;-79
2022/09/02 05:25:43;;;;;;;0.77;0.77;;;12.30;73.50;;;12.53;59.73;95199.19;5012818;28;20300;-79
2022/09/02 05:28:10;;;;;;;0.50;0.50;;;12.40;73.50;;;12.62;59.77;95192.72;5030581;28;20200;-79
2022/09/02 05:30:40;;;;;;;0.60;0.60;;;12.40;73.50;;;12.73;59.76;95192.19;5028420;28;20742;-79
2022/09/02 05:33:09;;;;;;;0.80;0.80;;;12.60;73.80;;;12.86;59.74;95196.66;5014843;28;20236;-79
2022/09/02 05:35:42;;;;;;;0.60;0.60;;;12.70;73.60;;;12.98;59.81;95195.06;5032913;28;20670;-78
2022/09/02 05:38:16;;;;;;;0.60;0.60;;;12.80;73.60;;;13.11;59.81;95191.66;5035062;28;20262;-79
2022/09/02 05:40:44;;;;;;;0.60;0.60;;;12.90;73.60;;;13.24;60.00;95176.88;5011592;28;20215;-78
2022/09/02 05:43:12;;;;;;;0.60;0.60;;;13.00;73.70;;;13.36;59.75;95187.63;5014446;28;20200;-78
2022/09/02 05:45:39;;;;;;;0.60;0.60;;;13.20;73.70;;;13.48;59.59;95174.69;5014215;28;20200;-80
2022/09/02 05:50:55;;;;;;;0.80;0.80;;;13.40;73.60;;;13.71;59.13;95176.91;5009133;28;20197;-79
2022/09/02 05:53:25;;;;;;;0.60;0.60;;;13.60;73.50;;;13.83;59.27;95183.16;4996268;28;20251;-79
2022/09/02 05:55:53;;;;;;;0.60;0.60;;;13.60;73.20;;;13.95;59.44;95193.06;5014227;28;20204;-79
2022/09/02 05:58:21;;;;;;;0.65;0.65;;;13.80;73.20;;;14.04;59.29;95182.09;4997776;28;20662;-79
2022/09/02 06:00:50;;;;;;;0.60;0.60;;;13.90;73.00;;;14.16;59.11;95176.19;5017990;28;20184;-79
2022/09/02 06:03:19;;;;;;;0.60;0.60;;;14.00;73.00;;;14.27;59.03;95182.66;5017260;28;20230;-78
2022/09/02 06:05:58;;;;;;;0.60;0.60;;;14.10;72.90;;;14.36;58.79;95182.19;5029390;28;20630;-78
2022/09/02 06:08:34;;;;;;;0.60;0.60;;;14.20;72.70;;;14.44;58.72;95185.63;5014288;28;20204;-80
2022/09/02 06:11:03;;;;;;;0.80;0.80;;;14.30;72.60;;;14.55;58.80;95183.16;5027279;28;20278;-79
2022/09/02 06:13:35;;;;;;;0.60;0.60;;;14.40;72.50;;;14.63;58.70;95184.72;5013093;28;20231;-80
2022/09/02 06:16:05;;;;;;;0.70;0.70;;;14.50;72.60;;;14.73;58.59;95190.41;5008129;28;20221;-80
2022/09/02 06:18:33;;;;;;;0.57;0.57;;;14.60;72.50;;;14.80;58.08;95189.56;4997781;28;20283;-78
2022/09/02 06:21:05;;;;;;;0.70;0.70;;;14.70;72.30;;;14.87;58.32;95187.72;4981435;28;20226;-79
2022/09/02 06:23:39;;;;;;;0.60;0.60;;;14.80;72.20;;;14.95;58.17;95189.28;4998099;28;20216;-80
2022/09/02 06:26:15;;;;;;;0.60;0.60;;;14.90;72.20;;;15.00;58.54;95185.00;4997198;28;20637;-80
2022/09/02 06:28:44;;;;;;;0.60;0.60;;;14.90;72.00;;;15.08;58.11;95186.56;5013483;28;20668;-80
2022/09/02 06:31:18;;;;;;;0.60;0.60;;;15.10;71.90;;;15.16;58.09;95186.31;4996321;28;20220;-79
2022/09/02 06:33:50;;;;;;;0.55;0.55;;;15.10;71.80;;;15.23;58.09;95188.09;5000902;28;20200;-80
2022/09/02 06:36:18;;;;;;;0.60;0.60;;;15.20;71.80;;;15.30;58.48;95183.56;5016489;28;20629;-78
2022/09/02 06:38:48;;;;;;;0.70;0.70;;;15.30;71.70;;;15.37;57.70;95182.50;5016503;28;20594;-79
2022/09/02 06:41:25;;;;;;;0.60;0.60;;;15.40;71.80;;;15.44;57.85;95174.53;5010327;28;20224;-79
2022/09/02 06:43:56;;;;;;;0.60;0.60;;;15.40;71.70;;;15.51;57.77;95182.38;4999654;28;20227;-80
2022/09/02 06:46:39;;;;;;;0.60;0.60;;;15.50;71.50;;;15.57;57.88;95178.09;5032742;28;20200;-80
2022/09/02 06:49:08;;;;;;;0.57;0.57;;;15.60;71.60;;;15.64;57.74;95179.63;5015682;28;20207;-79
2022/09/02 06:51:40;;;;;;;0.52;0.52;;;15.60;71.30;;;15.70;57.41;95175.31;5018525;28;20217;-79
2022/09/02 06:54:13;;;;;;;0.50;0.50;;;15.70;71.40;;;15.76;57.58;95177.09;4993615;28;20314;-80
2022/09/02 06:56:42;;;;;;;0.50;0.50;;;15.80;71.30;;;15.82;56.95;95181.53;5013842;28;20224;-79
2022/09/02 06:59:19;;;;;;;0.60;0.60;;;15.80;71.00;;;15.87;57.08;95178.25;5001314;28;20666;-79
2022/09/02 07:01:50;;;;;;;0.50;0.50;;;15.90;71.10;;;15.94;57.47;95183.47;5014541;28;20236;-80
2022/09/02 07:07:10;;;;;;;0.60;0.60;;;16.00;70.90;;;16.05;57.25;95169.53;5026229;28;20698;-80
2022/09/02 07:09:43;;;;;;;0.60;0.60;;;16.10;70.80;;;16.13;57.03;95171.06;4982376;28;20200;-79
2022/09/02 07:12:16;;;;;;;0.60;0.60;;;16.20;70.80;;;16.15;57.04;95164.53;5013482;28;20679;-79
2022/09/02 07:14:53;;;;;;;0.57;0.57;;;16.20;70.80;;;16.26;56.98;95168.28;4999592;28;20748;-79
2022/09/02 07:17:26;;;;;;;0.60;0.60;;;16.30;70.80;;;16.35;57.11;95173.28;4994531;28;20241;-80
2022/09/02 07:19:59;;;;;;;0.60;0.60;;;16.40;70.60;;;16.41;56.42;95172.38;4997599;28;20231;-80
2022/09/02 07:22:29;;;;;;;0.60;0.60;;;16.40;70.20;;;16.42;55.90;95168.72;5004130;28;20233;-78
2022/09/02 07:24:59;;;;;;;0.60;0.60;;;16.50;70.10;;;16.52;56.30;95170.84;5012647;28;20213;-80
2022/09/02 07:27:27;;;;;;;0.60;0.60;;;16.50;70.10;;;16.55;55.94;95165.06;5008274;28;20657;-80
2022/09/02 07:29:56;;;;;;;0.50;0.50;;;16.60;70.00;;;16.64;55.95;95177.78;5012566;28;20414;-80
2022/09/02 07:32:23;;;;;;;0.50;0.50;;;16.70;70.20;;;16.72;56.26;95168.75;5011903;28;20231;-80
2022/09/02 07:34:51;;;;;;;0.60;0.60;;;16.70;70.00;;;16.78;55.97;95167.03;4996283;28;20251;-80
2022/09/02 07:37:19;;;;;;;0.55;0.55;;;16.80;69.90;;;16.88;55.96;95171.78;4995184;28;20278;-79
2022/09/02 07:39:47;;;;;;;0.60;0.60;;;16.80;70.00;;;16.94;55.89;95169.09;5011923;28;20205;-78
2022/09/02 07:42:18;;;;;;;0.50;0.50;;;16.90;69.80;;;16.99;55.66;95171.06;5009267;28;20323;-79
2022/09/02 07:44:46;;;;;;;0.60;0.60;;;17.00;69.60;;;17.06;55.36;95169.09;5030633;28;20211;-79
2022/09/02 07:47:14;;;;;;;0.50;0.50;;;17.00;69.80;;;17.12;55.74;95170.06;5031757;28;20217;-79
2022/09/02 07:49:44;;;;;;;0.57;0.57;;;17.10;69.80;;;17.21;55.55;95165.22;5011142;28;20251;-80
2022/09/02 07:52:31;;;;;;;0.50;0.50;;;17.20;70.00;;;17.32;55.52;95168.94;4988517;28;20310;-79
2022/09/02 07:54:59;;;;;;;0.50;0.50;;;17.30;69.60;;;17.39;55.19;95159.03;5017329;28;20295;-78
2022/09/02 07:57:27;;;;;;;0.50;0.50;;;17.40;69.60;;;17.47;55.65;95160.53;5004029;28;20720;-79
2022/09/02 07:59:54;;;;;;;0.50;0.50;;;17.40;69.50;;;17.56;55.23;95169.78;5005916;28;20197;-79
2022/09/02 08:02:22;;;;;;;0.60;0.60;;;17.50;69.20;;;17.58;55.04;95155.25;4995357;28;20227;-79
2022/09/02 08:04:51;;;;;;;0.57;0.57;;;17.60;69.20;;;17.71;54.63;95158.72;4996174;28;20199;-79
2022/09/02 08:07:22;;;;;;;0.40;0.40;;;17.70;69.30;;;17.80;54.87;95161.81;5011516;28;20275;-78
2022/09/02 08:09:51;;;;;;;0.60;0.60;;;17.80;69.30;;;17.89;54.85;95161.28;4994999;28;20200;-80
2022/09/02 08:12:18;;;;;;;0.50;0.50;;;17.80;69.00;;;17.98;54.54;95167.06;4995137;28;20227;-78
2022/09/02 08:14:48;;;;;;;0.50;0.50;;;17.90;68.90;;;18.07;54.50;95164.84;5007690;28;20316;-79
2022/09/02 08:17:16;;;;;;;0.50;0.50;;;18.00;68.70;;;18.13;53.78;95155.97;5014723;28;20593;-78
2022/09/02 08:19:44;;;;;;;0.50;0.50;;;18.10;68.40;;;18.20;53.74;95161.13;5018925;28;20283;-79
2022/09/02 08:22:11;;;;;;;0.50;0.50;;;18.20;68.50;;;18.28;53.75;95162.63;5011767;28;20205;-79
2022/09/02 08:24:38;;;;;;;0.50;0.50;;;18.20;68.10;;;18.33;53.90;95160.88;5011627;28;20191;-79
2022/09/02 08:27:05;;;;;;;0.50;0.50;;;18.30;68.10;;;18.42;53.42;95168.47;4978853;28;20219;-79
2022/09/02 08:29:32;;;;;;;0.50;0.50;;;18.40;68.40;;;18.47;53.42;95160.63;4994605;28;20200;-80
2022/09/02 08:32:01;;;;;;;0.50;0.50;;;18.50;68.20;;;18.56;52.94;95151.25;5008881;28;20223;-79
2022/09/02 08:34:29;;;;;;;0.55;0.55;;;18.50;67.90;;;18.66;53.17;95159.44;5032475;28;20622;-79
2022/09/02 08:36:56;;;;;;;0.50;0.50;;;18.60;67.80;;;18.78;53.19;95153.25;5030940;28;20220;-78
2022/09/02 08:39:24;;;;;;;0.50;0.50;;;18.70;68.10;;;18.89;53.21;95149.72;5029049;28;20226;-78
2022/09/02 08:42:27;;;;;;;0.50;0.50;;;18.80;68.40;;;18.98;53.04;95158.16;5010003;28;20228;-79
2022/09/02 08:45:07;;;;;;;0.47;0.47;;;18.90;68.00;;;19.10;52.81;95163.41;5022294;28;20239;-79
2022/09/02 08:47:36;;;;;;;0.50;0.50;;;19.00;67.60;;;19.14;51.74;95169.84;5013521;28;20682;-79
2022/09/02 08:50:19;;;;;;;0.40;0.40;;;19.10;66.90;;;19.18;51.93;95157.72;5014626;28;20199;-79
2022/09/02 08:52:58;;;;;;;0.47;0.47;;;19.20;66.70;;;19.23;52.22;95159.66;4994186;28;20319;-79
2022/09/02 08:55:35;;;;;;;0.50;0.50;;;19.30;67.20;;;19.29;52.41;95161.34;5011105;28;20211;-80
2022/09/02 08:58:03;;;;;;;0.50;0.50;;;19.30;66.90;;;19.39;52.13;95158.84;5011118;28;20798;-80
2022/09/02 09:00:41;;;;;;;0.50;0.50;;;19.40;66.90;;;19.49;51.78;95158.22;4994858;28;20224;-79
2022/09/02 09:03:25;;;;;;;0.40;0.40;;;19.50;66.50;;;19.56;51.89;95155.41;4995340;28;20200;-80
2022/09/02 09:06:00;;;;;;;0.45;0.45;;;19.60;66.50;;;19.61;50.29;95158.94;4995384;28;20319;-80
2022/09/02 09:08:58;;;;;;;0.47;0.47;;;19.70;66.10;;;19.63;51.19;95148.84;5014921;28;20192;-81
2022/09/02 09:11:54;;;;;;;0.40;0.40;;;19.70;66.30;;;19.68;50.79;95153.47;5017199;28;20282;-80
2022/09/02 09:15:00;;;;;;;0.40;0.40;;;19.70;66.10;;;19.73;51.00;95145.53;5005835;28;20288;-80
2022/09/02 09:17:56;;;;;;;0.40;0.40;;;19.80;66.00;;;19.77;50.22;95151.19;4997216;28;20231;-80
2022/09/02 09:20:31;;;;;;;0.40;0.40;;;19.90;65.50;;;19.80;50.49;95151.50;5026102;28;20255;-80
2022/09/02 09:23:26;;;;;;;0.40;0.40;;;19.90;65.30;;;19.86;50.73;95141.78;5010080;28;20257;-79
2022/09/02 09:26:13;;;;;;;0.50;0.50;;;20.00;65.80;;;19.97;50.56;95140.84;5025961;28;20194;-81
2022/09/02 09:28:46;;;;;;;0.50;0.50;;;20.00;65.30;;;20.05;50.02;95144.16;4999563;28;20639;-80
2022/09/02 09:31:21;;;;;;;0.43;0.43;;;20.10;65.20;;;20.12;49.45;95142.13;4997443;28;20209;-81
2022/09/02 09:34:08;;;;;;;0.43;0.43;;;20.10;64.10;;;20.15;49.15;95128.28;5029404;28;20287;-82
2022/09/02 09:36:50;;;;;;;0.63;0.63;;;20.20;64.70;;;20.20;48.65;95128.38;5014159;28;20256;-81
2022/09/02 09:39:26;;;;;;;0.40;0.40;;;20.20;63.90;;;20.24;49.12;95136.69;4998551;28;20204;-81
2022/09/02 09:41:57;;;;;;;0.43;0.43;;;20.30;64.40;;;20.36;49.58;95129.38;4996804;28;20259;-80
2022/09/02 09:44:43;;;;;;;0.40;0.40;;;20.30;64.70;;;20.53;49.44;95126.66;4997875;28;20652;-80
2022/09/02 09:47:24;;;;;;;0.45;0.45;;;20.50;64.80;;;20.67;48.93;95132.38;5040212;28;20251;-80
2022/09/02 09:49:53;;;;;;;0.50;0.50;;;20.60;64.30;;;20.77;48.69;95119.19;5017749;28;20566;-81
2022/09/02 09:52:27;;;;;;;0.40;0.40;;;20.70;64.00;;;20.85;48.69;95127.78;5030127;28;20331;-81
2022/09/02 09:55:21;;;;;;;0.40;0.40;;;20.80;64.10;;;20.87;47.69;95117.69;4997697;28;20311;-80
2022/09/02 09:57:53;;;;;;;0.40;0.40;;;20.90;64.20;;;20.97;48.07;95119.63;5013322;28;20213;-82
2022/09/02 10:00:26;;;;;;;0.40;0.40;;;21.00;64.20;;;21.08;47.81;95116.81;5017261;28;20201;-81
2022/09/02 10:03:00;;;;;;;0.52;0.52;;;21.10;64.20;;;21.21;47.74;95120.13;5014862;28;20226;-81
2022/09/02 10:05:33;;;;;;;0.40;0.40;;;21.20;63.30;;;21.30;47.54;95109.78;5006856;28;20461;-81
2022/09/02 10:08:27;;;;;;;0.40;0.40;;;21.30;63.10;;;21.35;47.43;95112.50;5004886;28;20299;-81
2022/09/02 10:11:19;;;;;;;0.50;0.50;;;21.40;63.70;;;21.43;47.56;95106.69;4995913;28;20227;-80
2022/09/02 10:13:46;;;;;;;0.60;0.60;;;21.50;63.40;;;21.52;46.84;95104.34;5013252;28;20212;-82
2022/09/02 10:16:45;;;;;;;0.52;0.52;;;21.60;62.80;;;21.69;47.38;95107.72;5002081;28;20611;-80
2022/09/02 10:19:31;;;;;;;0.43;0.43;;;21.70;63.00;;;21.87;46.78;95101.16;5013024;28;20288;-80
2022/09/02 10:22:07;;;;;;;0.50;0.50;;;21.90;62.60;;;22.12;47.05;95109.53;5013736;28;20224;-80
2022/09/02 10:25:08;;;;;;;0.50;0.50;;;22.10;63.30;;;22.29;46.12;95096.81;5029635;28;20238;-81
2022/09/02 10:28:19;;;;;;;0.40;0.40;;;22.30;62.90;;;22.51;45.79;95099.31;4997071;28;20212;-82
2022/09/02 10:31:11;;;;;;;0.60;0.60;;;22.50;61.90;;;22.65;45.59;95104.16;4996522;28;20204;-81
2022/09/02 10:34:02;;;;;;;0.40;0.40;;;22.70;62.20;;;22.77;44.61;95103.94;5013233;28;20610;-81
2022/09/02 10:37:14;;;;;;;0.52;0.52;;;22.80;61.00;;;22.84;44.61;95102.59;5013235;28;20627;-81
2022/09/02 10:40:16;;;;;;;0.40;0.40;;;22.90;61.40;;;22.90;44.49;95105.28;4997239;28;20199;-81
2022/09/02 10:43:06;;;;;;;0.35;0.35;;;23.00;60.70;;;22.91;43.92;95093.50;4997077;28;20220;-82
2022/09/02 10:45:47;;;;;;;0.22;0.22;;;23.10;60.10;;;22.95;44.47;95095.41;4996814;28;20208;-81
2022/09/02 10:48:55;;;;;;;0.40;0.40;;;23.10;60.50;;;22.91;43.42;95099.69;4996638;28;20208;-81
2022/09/02 10:51:46;;;;;;;0.50;0.50;;;23.10;60.30;;;22.87;43.70;95095.91;4996863;28;20606;-81